メインページ
METAR-TAF:

METAR-TAF

空港 :

スレイマニヤ, イラク

緯度: 35-33-39N, 経度: 45-18-52E, 海抜: 760m

現時点の気象観測

当レポートは45分前の15:00(UTC)に作成
南東の風 4kt
気温 8°C
湿度 100%
気圧 1026 hPa
視程: 6000m
高度1000ftの雲はほとんどない
高度3200ftの曇り

METAR: ORSU 181500Z 14004KT 6000 FEW010 OVC032 08/08 Q1026

時間: 18:45 (15:45 UTC)

予報

当レポートは4時間45分前の11:00(UTC)に作成
予報は18日の 12時(UTC)から 19日の 12時(UTC)まで有効
南東の風 6kt
視程: 5000m
高度3000ftの千切れ雲あり
高度7000ftの千切れ雲あり
18日の 17時(UTC)から 18日の 19時(UTC)まで徐々に
西の風 8kt
視程: 8000m
高度4000ftの雲は散在している
高度10000ftの雲は散在している
19日の 01時(UTC)から 19日の 06時(UTC)まで一時的に
変向風 4kt
視程: 2000m
19日の 07時(UTC)から 19日の 09時(UTC)まで徐々に
東/南東の風 6kt
視程10km以上
高度4000ftの雲は散在している

TAF: ORSU 181100Z 1812/1912 14006KT 5000 RA BKN030 BKN070 BECMG 1817/1819 26008KT 8000 SCT040 SCT100 TEMPO 1901/1906 VRB04KT 2000 BR NSC BECMG 1907/1909 12006KT 9999 SCT040

4,000以上の空港の気象観測と天気予報(METAR報とTAF報)

利用可能な観測所は地図上に黄色い丸と赤い丸で示す。

丸の上にカーソルを重ねると観測所名を参照できる。

次にクリックすると気象観測と天気予報を参照できる。

マップの切り替え:黒色「×」印の緑ボタンをクリックして拡大、「-」印の緑ボタンをクリックして縮小、緑色の三角印をクリックして隣りの地図に切り替え


METAR-TAF: